Time;durP1;ratioP1;P1;durP2;ratioP2;P2;SDS_P1;SDS_P2;PMS_P1;PMS_P2;Temp;Humidity;BMP_temperature;BMP_pressure;BME280_temperature;BME280_humidity;BME280_pressure;Samples;Min_cycle;Max_cycle;Signal;HPM_P1;HPM_P2
2020/12/11 00:01:33;;;;;;;22.60;10.05;;;6.90;48.70;;;;;;5032796;28;20048;-81
2020/12/11 00:04:00;;;;;;;23.27;11.90;;;7.00;49.20;;;;;;5019906;28;20029;-83
2020/12/11 00:06:26;;;;;;;27.13;12.75;;;;;;;;;;5032508;28;20109;-84
2020/12/11 00:08:52;;;;;;;25.77;9.60;;;;;;;;;;5033972;28;20040;-82
2020/12/11 00:11:18;;;;;;;23.60;8.25;;;;;;;;;;5029345;28;20038;-84
2020/12/11 00:13:44;;;;;;;22.30;10.15;;;6.70;50.00;;;;;;5022800;28;20025;-82
2020/12/11 00:16:10;;;;;;;21.30;8.82;;;;;;;;;;5032283;28;20086;-84
2020/12/11 00:18:37;;;;;;;26.55;10.32;;;6.70;50.70;;;;;;5033419;28;20021;-83
2020/12/11 00:21:03;;;;;;;22.02;8.15;;;;;;;;;;5019297;28;20061;-85
2020/12/11 00:23:29;;;;;;;14.13;6.80;;;;;;;;;;5032662;28;20392;-82
2020/12/11 00:25:58;;;;;;;14.27;7.15;;;;;;;;;;5033252;28;20571;-84
2020/12/11 00:28:28;;;;;;;10.98;6.95;;;6.80;51.40;;;;;;5032031;28;20021;-82
2020/12/11 00:30:55;;;;;;;13.52;6.30;;;6.80;51.40;;;;;;5033448;28;20096;-84
2020/12/11 00:33:22;;;;;;;16.70;7.95;;;6.80;50.20;;;;;;5033278;28;20026;-81
2020/12/11 00:35:48;;;;;;;13.90;5.07;;;;;;;;;;5033143;28;20216;-84
2020/12/11 00:38:14;;;;;;;11.70;5.28;;;;;;;;;;5031914;28;20447;-84
2020/12/11 00:40:40;;;;;;;11.15;4.90;;;;;;;;;;5017599;28;20489;-83
2020/12/11 00:43:06;;;;;;;16.15;7.43;;;;;;;;;;5031607;28;20108;-85
2020/12/11 00:45:32;;;;;;;8.18;4.60;;;6.90;51.20;;;;;;5031699;28;20052;-85
2020/12/11 00:47:59;;;;;;;26.60;10.00;;;;;;;;;;5031833;28;20116;-83
2020/12/11 00:50:25;;;;;;;11.85;6.55;;;;;;;;;;5031858;28;20075;-83
2020/12/11 00:52:51;;;;;;;8.52;4.25;;;;;;;;;;5031588;28;20029;-82
2020/12/11 00:55:17;;;;;;;11.43;6.47;;;7.00;51.20;;;;;;5033026;28;20025;-83
2020/12/11 00:57:46;;;;;;;9.75;4.82;;;;;;;;;;5031541;28;20502;-83
2020/12/11 01:00:16;;;;;;;10.65;5.25;;;6.90;51.40;;;;;;5032079;28;20064;-84
2020/12/11 01:02:42;;;;;;;12.55;5.60;;;;;;;;;;5031612;28;20025;-83
2020/12/11 01:05:08;;;;;;;8.30;5.68;;;;;;;;;;5031701;28;20056;-84
2020/12/11 01:07:34;;;;;;;14.57;4.75;;;;;;;;;;5032506;28;20021;-84
2020/12/11 01:10:01;;;;;;;12.32;4.07;;;;;;;;;;5019219;28;20040;-85
2020/12/11 01:12:27;;;;;;;10.05;4.22;;;;;;;;;;5020330;28;20057;-85
2020/12/11 01:14:53;;;;;;;8.73;4.45;;;;;;;;;;5029922;28;20026;-85
2020/12/11 01:17:19;;;;;;;7.28;4.57;;;;;;;;;;5032715;28;20026;-82
2020/12/11 01:19:46;;;;;;;8.70;3.53;;;;;;;;;;5031200;28;20025;-83
2020/12/11 01:22:12;;;;;;;19.83;4.30;;;7.30;51.70;;;;;;5032736;28;20017;-83
2020/12/11 01:24:38;;;;;;;5.47;3.83;;;;;;;;;;5031335;28;20061;-82
2020/12/11 01:27:04;;;;;;;9.32;4.18;;;7.20;52.00;;;;;;5031268;28;20501;-82
2020/12/11 01:29:30;;;;;;;8.38;4.80;;;;;;;;;;5031457;28;20030;-85
2020/12/11 01:31:58;;;;;;;8.60;4.22;;;7.30;50.90;;;;;;5031479;28;20030;-82
2020/12/11 01:34:24;;;;;;;4.30;2.38;;;;;;;;;;5019977;28;20124;-84
2020/12/11 01:36:50;;;;;;;9.85;2.30;;;;;;;;;;5032701;28;20025;-85
2020/12/11 01:39:16;;;;;;;7.28;3.90;;;;;;;;;;5030963;28;20034;-86
2020/12/11 01:41:42;;;;;;;7.38;3.90;;;;;;;;;;5031219;28;20022;-82
2020/12/11 01:44:09;;;;;;;4.28;2.88;;;7.30;50.50;;;;;;5031130;28;20078;-83
2020/12/11 01:46:40;;;;;;;6.07;4.00;;;7.40;50.90;;;;;;5032611;28;20053;-83
2020/12/11 01:49:08;;;;;;;5.15;2.72;;;7.30;51.30;;;;;;5031156;28;20025;-83
2020/12/11 01:51:34;;;;;;;;;;;7.30;51.50;;;;;;5032788;28;20115;-85
2020/12/11 01:54:00;;;;;;;10.07;5.55;;;;;;;;;;5032206;28;19905;-82
2020/12/11 01:56:29;;;;;;;5.72;3.47;;;7.20;50.60;;;;;;5032317;28;20099;-81
2020/12/11 01:59:01;;;;;;;11.95;5.90;;;7.20;50.10;;;;;;5032348;28;20025;-82
2020/12/11 02:01:29;;;;;;;10.90;4.82;;;7.30;50.30;;;;;;5032192;28;20021;-86
2020/12/11 02:03:55;;;;;;;7.97;3.63;;;;;;;;;;5031032;28;20018;-83
2020/12/11 02:06:21;;;;;;;12.38;4.22;;;;;;;;;;5022235;28;20028;-85
2020/12/11 02:08:48;;;;;;;5.38;3.60;;;;;;;;;;5032245;28;20021;-84
2020/12/11 02:11:18;;;;;;;2.40;2.20;;;7.30;51.70;;;;;;5033702;28;20079;-81
2020/12/11 02:13:44;;;;;;;3.30;2.45;;;;;;;;;;5035893;28;20026;-84
2020/12/11 02:16:10;;;;;;;3.22;2.47;;;;;;;;;;5034805;28;20028;-81
2020/12/11 02:18:36;;;;;;;6.63;2.75;;;;;;;;;;5034552;28;20017;-83
2020/12/11 02:21:02;;;;;;;3.30;2.30;;;;;;;;;;5031704;28;20026;-84
2020/12/11 02:23:28;;;;;;;15.70;6.40;;;;;;;;;;5024783;28;20032;-83
2020/12/11 02:25:54;;;;;;;14.23;6.43;;;;;;;;;;5035480;28;20056;-84
2020/12/11 02:28:20;;;;;;;18.67;7.45;;;;;;;;;;5035356;28;20018;-82
2020/12/11 02:30:46;;;;;;;8.45;4.00;;;;;;;;;;5033590;28;20032;-82
2020/12/11 02:33:12;;;;;;;6.35;2.90;;;;;;;;;;5035218;28;20056;-84
2020/12/11 02:35:41;;;;;;;7.93;3.97;;;;;;;;;;5034224;28;20033;-83
2020/12/11 02:38:09;;;;;;;12.02;3.58;;;;;;;;;;5033910;28;20711;-85
2020/12/11 02:40:43;;;;;;;11.30;3.90;;;7.10;50.70;;;;;;5034067;28;20025;-84
2020/12/11 02:43:09;;;;;;;12.57;5.30;;;;;;;;;;5035313;28;20017;-85
2020/12/11 02:45:35;;;;;;;5.35;3.03;;;;;;;;;;5034028;28;20022;-82
2020/12/11 02:48:01;;;;;;;3.30;2.13;;;;;;;;;;5033840;28;20024;-83
2020/12/11 02:50:27;;;;;;;9.48;2.88;;;;;;;;;;5027850;28;20455;-84
2020/12/11 02:52:53;;;;;;;8.80;4.18;;;;;;;;;;5029068;28;20040;-85
2020/12/11 02:55:19;;;;;;;5.00;3.42;;;;;;;;;;5020084;28;20045;-82
2020/12/11 02:57:45;;;;;;;7.38;3.58;;;;;;;;;;5035130;28;20025;-82
2020/12/11 03:00:11;;;;;;;6.13;3.20;;;;;;;;;;5034751;28;20025;-85
2020/12/11 03:02:37;;;;;;;7.50;2.65;;;;;;;;;;5034972;28;20022;-84
2020/12/11 03:05:03;;;;;;;6.35;2.42;;;;;;;;;;5033590;28;20021;-86
2020/12/11 03:07:29;;;;;;;5.32;3.67;;;;;;;;;;5034625;28;20017;-82
2020/12/11 03:09:55;;;;;;;9.43;2.90;;;;;;;;;;5033280;28;20041;-82
2020/12/11 03:12:21;;;;;;;6.13;3.42;;;;;;;;;;5018847;28;20028;-84
2020/12/11 03:14:47;;;;;;;8.48;5.45;;;6.90;73.00;;;;;;5032982;28;20102;-85
2020/12/11 03:17:13;;;;;;;13.13;5.60;;;;;;;;;;5033481;28;20401;-85
2020/12/11 03:19:39;;;;;;;11.38;5.50;;;;;;;;;;5032847;28;20025;-83
2020/12/11 03:22:05;;;;;;;13.40;6.13;;;;;;;;;;5033642;28;20478;-85
2020/12/11 03:24:31;;;;;;;13.68;5.72;;;;;;;;;;5033939;28;20021;-83
2020/12/11 03:26:57;;;;;;;10.43;5.22;;;;;;;;;;5034298;28;20525;-83
2020/12/11 03:29:23;;;;;;;11.60;4.28;;;;;;;;;;5032525;28;20024;-82
2020/12/11 03:31:49;;;;;;;10.68;5.10;;;;;;;;;;5033929;28;20033;-82
2020/12/11 03:34:15;;;;;;;8.50;4.43;;;;;;;;;;5032316;28;20026;-83
2020/12/11 03:36:41;;;;;;;9.63;4.78;;;;;;;;;;5032873;28;20030;-83
2020/12/11 03:39:07;;;;;;;10.20;4.28;;;;;;;;;;5032565;28;20029;-82
2020/12/11 03:41:34;;;;;;;17.38;5.63;;;;;;;;;;5032651;28;20440;-85
2020/12/11 03:43:59;;;;;;;18.98;6.55;;;7.00;73.20;;;;;;5032735;28;20048;-83
2020/12/11 03:46:25;;;;;;;9.60;5.13;;;;;;;;;;5034102;28;20064;-84
2020/12/11 03:48:52;;;;;;;13.07;5.68;;;;;;;;;;5033024;28;20516;-84
2020/12/11 03:51:19;;;;;;;34.58;6.25;;;6.80;50.00;;;;;;5034078;28;20029;-84
2020/12/11 03:53:46;;;;;;;7.88;3.50;;;6.80;50.60;;;;;;5033855;28;20091;-85
2020/12/11 03:56:16;;;;;;;4.43;3.00;;;6.80;51.10;;;;;;5033786;28;20030;-84
2020/12/11 03:58:42;;;;;;;8.95;3.47;;;6.80;51.40;;;;;;5034025;28;20075;-82
2020/12/11 04:01:09;;;;;;;6.33;3.50;;;6.80;51.40;;;;;;5032605;28;20025;-85
2020/12/11 04:03:35;;;;;;;12.68;5.30;;;;;;;;;;5032655;28;20288;-85
2020/12/11 04:06:01;;;;;;;9.25;4.63;;;;;;;;;;5032491;28;20493;-84
2020/12/11 04:08:27;;;;;;;10.68;4.43;;;;;;;;;;5032582;28;20108;-84
2020/12/11 04:10:53;;;;;;;8.50;4.53;;;;;;;;;;5032582;28;20108;-83
2020/12/11 04:13:19;;;;;;;15.85;4.82;;;;;;;;;;5033714;28;20383;-85
2020/12/11 04:15:45;;;;;;;9.23;3.33;;;;;;;;;;5032268;28;20033;-83
2020/12/11 04:18:11;;;;;;;4.97;2.83;;;;;;;;;;5022591;28;20053;-82
2020/12/11 04:20:37;;;;;;;5.40;3.10;;;;;;;;;;5030622;28;20084;-81
2020/12/11 04:23:03;;;;;;;4.75;2.97;;;;;;;;;;5032347;28;20029;-84
2020/12/11 04:25:29;;;;;;;9.45;2.95;;;;;;;;;;5033138;28;20120;-85
2020/12/11 04:27:55;;;;;;;9.55;3.08;;;;;;;;;;5032166;28;20075;-84
2020/12/11 04:30:22;;;;;;;8.70;2.67;;;;;;;;;;5020244;28;20030;-85
2020/12/11 04:32:48;;;;;;;5.88;3.05;;;;;;;;;;5031415;28;20073;-85
2020/12/11 04:35:14;;;;;;;6.32;3.33;;;;;;;;;;5020658;28;20399;-83
2020/12/11 04:37:40;;;;;;;10.57;4.22;;;;;;;;;;5030646;28;20388;-85
2020/12/11 04:40:06;;;;;;;9.32;4.03;;;;;;;;;;5033079;28;20443;-83
2020/12/11 04:42:35;;;;;;;3.78;2.58;;;7.10;50.60;;;;;;5033011;28;20084;-83
2020/12/11 04:45:01;;;;;;;4.75;2.15;;;;;;;;;;5031909;28;20025;-84
2020/12/11 04:47:27;;;;;;;3.03;1.90;;;;;;;;;;5017859;28;20079;-83
2020/12/11 04:49:55;;;;;;;3.95;2.22;;;7.20;51.80;;;;;;5031974;28;20080;-85
2020/12/11 04:52:27;;;;;;;3.45;1.60;;;7.20;51.80;;;;;;5032945;28;20029;-85
2020/12/11 04:54:58;;;;;;;6.05;2.35;;;7.20;74.70;;;;;;5032902;28;20394;-84
2020/12/11 04:57:30;;;;;;;5.07;2.10;;;7.40;73.40;;;;;;5032926;28;20025;-85
2020/12/11 04:59:56;;;;;;;3.78;1.77;;;;;;;;;;5032752;28;20048;-83
2020/12/11 05:02:22;;;;;;;2.80;2.28;;;;;;;;;;5032853;28;20501;-84
2020/12/11 05:04:52;;;;;;;3.45;2.58;;;7.40;50.80;;;;;;5032745;28;20025;-85
2020/12/11 05:07:18;;;;;;;7.45;2.10;;;;;;;;;;5032918;28;20028;-84
2020/12/11 05:09:54;;;;;;;3.10;1.80;;;7.30;50.90;;;;;;5032918;28;20061;-83
2020/12/11 05:12:20;;;;;;;2.05;1.60;;;;;;;;;;5028883;28;20028;-85
2020/12/11 05:14:46;;;;;;;10.75;3.38;;;;;;;;;;5031633;28;20060;-84
2020/12/11 05:17:12;;;;;;;13.10;5.57;;;;;;;;;;5032723;28;20021;-82
2020/12/11 05:19:52;;;;;;;9.25;5.50;;;7.20;49.60;;;;;;5031318;28;20452;-82
2020/12/11 05:22:19;;;;;;;11.43;4.53;;;7.00;73.00;;;;;;5031279;28;20071;-82
2020/12/11 05:24:52;;;;;;;7.22;4.03;;;7.10;73.00;;;;;;5031572;28;20030;-86
2020/12/11 05:27:30;;;;;;;10.00;4.90;;;7.10;72.70;;;;;;5032218;28;20675;-84
2020/12/11 05:29:57;;;;;;;6.47;4.28;;;6.90;73.00;;;;;;5031650;28;20076;-82
2020/12/11 05:32:36;;;;;;;;;;;6.90;50.10;;;;;;5032754;28;20060;-83
2020/12/11 05:35:04;;;;;;;8.85;3.90;;;7.10;50.00;;;;;;5031413;28;19905;-83
2020/12/11 05:37:29;;;;;;;;;;;7.00;49.50;;;;;;5019026;28;20113;-84
2020/12/11 05:39:55;;;;;;;10.82;4.28;;;;;;;;;;5024623;28;20017;-82
2020/12/11 05:42:21;;;;;;;13.10;4.47;;;;;;;;;;5025529;28;20465;-84
2020/12/11 05:44:47;;;;;;;6.78;4.65;;;;;;;;;;5032504;28;20095;-82
2020/12/11 05:47:24;;;;;;;9.18;4.75;;;6.90;49.50;;;;;;5035605;28;20028;-82
2020/12/11 05:49:51;;;;;;;10.05;5.75;;;;;;;;;;5035088;28;20052;-83
2020/12/11 05:52:24;;;;;;;18.35;7.75;;;6.70;49.70;;;;;;5034968;28;20033;-83
2020/12/11 05:54:53;;;;;;;12.88;5.88;;;6.90;49.80;;;;;;5034392;28;20042;-86
2020/12/11 05:57:22;;;;;;;14.55;6.28;;;7.00;49.90;;;;;;5034539;28;20029;-82
2020/12/11 05:59:48;;;;;;;7.57;4.53;;;;;;;;;;5033058;28;20401;-86
2020/12/11 06:02:17;;;;;;;8.20;5.30;;;6.80;50.30;;;;;;5034444;28;20075;-82
2020/12/11 06:04:45;;;;;;;10.32;6.00;;;6.90;49.60;;;;;;5033316;28;20079;-82
2020/12/11 06:07:13;;;;;;;14.15;6.75;;;7.00;49.20;;;;;;5034795;28;20029;-84
2020/12/11 06:09:41;;;;;;;22.33;8.02;;;7.00;49.00;;;;;;5035359;28;20656;-83
2020/12/11 06:12:08;;;;;;;18.02;7.38;;;7.00;49.50;;;;;;5034271;28;20025;-83
2020/12/11 06:15:01;;;;;;;11.75;5.15;;;6.30;72.10;;;;;;5034638;28;20100;-83
2020/12/11 06:17:38;;;;;;;7.00;3.10;;;6.90;73.20;;;;;;5035557;28;20032;-84
2020/12/11 06:20:07;;;;;;;8.55;3.72;;;6.90;50.60;;;;;;5051191;28;20448;-84
2020/12/11 06:22:33;;;;;;;5.20;3.03;;;6.80;61.60;;;;;;5032833;28;20432;-85
2020/12/11 06:25:25;;;;;;;16.02;5.25;;;7.00;50.30;;;;;;5033989;28;20025;-82
2020/12/11 06:27:52;;;;;;;7.10;3.88;;;7.20;73.30;;;;;;5035110;28;20047;-84
2020/12/11 06:30:25;;;;;;;8.23;3.47;;;;;;;;;;5035298;28;20102;-85
2020/12/11 06:32:51;;;;;;;6.57;3.63;;;;;;;;;;5034788;28;20032;-82
2020/12/11 06:35:18;;;;;;;12.82;6.22;;;;;;;;;;5035327;28;20026;-82
2020/12/11 06:37:44;;;;;;;16.42;6.72;;;;;;;;;;5026783;28;20482;-83
2020/12/11 06:40:10;;;;;;;18.17;8.38;;;;;;;;;;5037544;28;20401;-84
2020/12/11 06:42:36;;;;;;;13.90;7.15;;;;;;;;;;5037501;28;20025;-82
2020/12/11 06:45:23;;;;;;;12.43;7.32;;;6.90;49.80;;;;;;5033436;28;20117;-83
2020/12/11 06:48:01;;;;;;;18.70;7.50;;;6.80;49.90;;;;;;5034824;28;20048;-84
2020/12/11 06:50:31;;;;;;;16.30;6.13;;;6.80;73.30;;;;;;5041456;28;20033;-84
2020/12/11 06:52:58;;;;;;;16.13;5.60;;;7.00;50.80;;;;;;5033085;28;20462;-85
2020/12/11 06:55:49;;;;;;;18.00;7.53;;;6.90;50.90;;;;;;5033639;28;20029;-86
2020/12/11 06:58:19;;;;;;;5.75;4.45;;;7.00;51.50;;;;;;5028986;28;20022;-85
2020/12/11 07:00:52;;;;;;;3.58;1.95;;;7.00;52.40;;;;;;5033194;28;20497;-84
2020/12/11 07:03:19;;;;;;;1.92;1.60;;;7.10;52.40;;;;;;5039439;28;20032;-84
2020/12/11 07:05:46;;;;;;;2.53;1.85;;;;;;;;;;5040617;28;20021;-84
2020/12/11 07:08:13;;;;;;;1.50;1.13;;;7.20;52.70;;;;;;5036101;28;20030;-84
2020/12/11 07:10:39;;;;;;;6.97;1.88;;;;;;;;;;5037373;28;20124;-83
2020/12/11 07:13:06;;;;;;;2.08;1.60;;;7.20;52.80;;;;;;5034353;28;20481;-85
2020/12/11 07:15:32;;;;;;;7.47;2.67;;;;;;;;;;5018846;28;20505;-86
2020/12/11 07:17:58;;;;;;;3.90;2.30;;;;;;;;;;5022933;28;20497;-86
2020/12/11 07:20:24;;;;;;;2.30;1.15;;;;;;;;;;5027316;28;20484;-84
2020/12/11 07:22:51;;;;;;;0.70;0.70;;;;;;;;;;5033254;28;20540;-85
2020/12/11 07:25:17;;;;;;;2.25;0.75;;;;;;;;;;5032629;28;20017;-83
2020/12/11 07:28:00;;;;;;;5.05;2.08;;;7.70;53.30;;;;;;5033040;28;20029;-83
2020/12/11 07:30:26;;;;;;;6.45;3.20;;;7.80;62.20;;;;;;5033311;28;20033;-83
2020/12/11 07:32:55;;;;;;;5.03;2.80;;;7.80;53.60;;;;;;5029140;28;20036;-83
2020/12/11 07:35:22;;;;;;;1.42;0.95;;;7.80;53.70;;;;;;5029442;28;20071;-84
2020/12/11 07:37:53;;;;;;;3.60;1.45;;;7.90;53.70;;;;;;5032358;28;20125;-83
2020/12/11 07:40:20;;;;;;;1.10;0.80;;;8.10;53.90;;;;;;5033339;28;20798;-83
2020/12/11 07:42:47;;;;;;;0.63;0.60;;;8.00;53.40;;;;;;5036027;28;20018;-83
2020/12/11 07:45:26;;;;;;;0.57;0.57;;;7.90;54.90;;;;;;5032390;28;20036;-83
2020/12/11 07:47:53;;;;;;;0.35;0.35;;;7.80;56.60;;;;;;5033645;28;20025;-84
2020/12/11 07:50:27;;;;;;;0.70;0.40;;;7.70;57.00;;;;;;5032122;28;20033;-83
2020/12/11 07:52:54;;;;;;;0.80;0.40;;;7.70;58.10;;;;;;5033383;28;20044;-84
2020/12/11 07:55:21;;;;;;;0.43;0.40;;;7.80;58.30;;;;;;5037499;28;20029;-84
2020/12/11 07:57:54;;;;;;;1.48;0.50;;;7.70;59.40;;;;;;5032060;28;20509;-85
2020/12/11 08:00:21;;;;;;;1.42;0.98;;;7.90;59.60;;;;;;5035894;28;20421;-84
2020/12/11 08:03:05;;;;;;;0.80;0.80;;;7.90;58.90;;;;;;5031938;28;20036;-84
2020/12/11 08:05:31;;;;;;;0.47;0.47;;;;;;;;;;5032010;28;20017;-84
2020/12/11 08:07:57;;;;;;;1.58;0.85;;;;;;;;;;5031669;28;20049;-83
2020/12/11 08:10:25;;;;;;;0.50;0.43;;;7.90;59.50;;;;;;5032893;28;20025;-85
2020/12/11 08:12:51;;;;;;;0.50;0.50;;;8.10;59.80;;;;;;5031756;28;20406;-84
2020/12/11 08:15:31;;;;;;;2.00;1.02;;;8.10;59.30;;;;;;5031895;28;20037;-84
2020/12/11 08:18:20;;;;;;;1.10;0.60;;;8.00;59.80;;;;;;5032947;28;20029;-84
2020/12/11 08:20:51;;;;;;;0.80;0.57;;;7.90;60.40;;;;;;5027566;28;20571;-87
2020/12/11 08:23:42;;;;;;;0.73;0.40;;;7.80;60.30;;;;;;5039677;28;20112;-86
2020/12/11 08:26:08;;;;;;;0.30;0.30;;;;;;;;;;5030961;28;20052;-83
2020/12/11 08:28:34;;;;;;;0.47;0.47;;;;;;;;;;5032872;28;20174;-87
2020/12/11 08:31:21;;;;;;;0.40;0.40;;;7.30;62.70;;;;;;5030145;28;20563;-88
2020/12/11 08:33:48;;;;;;;0.65;0.65;;;;;;;;;;5017958;28;20038;-86
2020/12/11 08:36:41;;;;;;;0.53;0.43;;;7.40;63.00;;;;;;5029727;28;20104;-88
2020/12/11 08:39:09;;;;;;;1.05;0.95;;;;;;;;;;5028991;28;20272;-89
2020/12/11 08:41:38;;;;;;;;;;;7.20;64.30;;;;;;5031225;28;20033;-85
2020/12/11 08:44:10;;;;;;;0.30;0.30;;;;;;;;;;5030210;28;19905;-85
2020/12/11 08:47:08;;;;;;;0.30;0.30;;;;;;;;;;5031345;28;20025;-83
2020/12/11 08:49:29;;;;;;;0.57;0.50;;;;;;;;;;5032300;28;20029;-85
2020/12/11 08:51:55;;;;;;;9.07;0.65;;;;;;;;;;5031103;28;20401;-85
2020/12/11 08:54:27;;;;;;;0.40;0.30;;;;;;;;;;5032232;28;20493;-86
2020/12/11 08:56:54;;;;;;;0.32;0.32;;;;;;;;;;5030828;28;20508;-86
2020/12/11 08:59:20;;;;;;;0.30;0.30;;;;;;;;;;5032200;28;20026;-82
2020/12/11 09:01:46;;;;;;;0.40;0.32;;;;;;;;;;5032089;28;20029;-87
2020/12/11 09:04:12;;;;;;;0.30;0.30;;;;;;;;;;5037629;28;20018;-86
2020/12/11 09:06:38;;;;;;;0.40;0.40;;;;;;;;;;5037608;28;20021;-84
2020/12/11 09:09:04;;;;;;;0.30;0.30;;;;;;;;;;5039857;28;20025;-83
2020/12/11 09:11:30;;;;;;;0.57;0.57;;;7.40;64.70;;;;;;5032571;28;20520;-85
2020/12/11 09:13:56;;;;;;;0.63;0.50;;;7.50;88.00;;;;;;5030222;28;20093;-85
2020/12/11 09:16:22;;;;;;;1.95;0.40;;;;;;;;;;5032411;28;20512;-85
2020/12/11 09:18:48;;;;;;;0.20;0.20;;;;;;;;;;5032119;28;20026;-85
2020/12/11 09:21:14;;;;;;;0.30;0.30;;;;;;;;;;5032485;28;20029;-86
2020/12/11 09:23:40;;;;;;;0.43;0.43;;;;;;;;;;5035047;28;20025;-87
2020/12/11 09:26:07;;;;;;;0.63;0.50;;;;;;;;;;5035024;28;20046;-85
2020/12/11 09:28:33;;;;;;;0.20;0.20;;;;;;;;;;5034846;28;20030;-86
2020/12/11 09:30:59;;;;;;;0.30;0.30;;;;;;;;;;5021033;28;20025;-86
2020/12/11 09:33:27;;;;;;;0.30;0.30;;;;;;;;;;5034983;28;20493;-86
2020/12/11 09:35:54;;;;;;;0.45;0.40;;;;;;;;;;5019378;28;20026;-86
2020/12/11 09:38:21;;;;;;;0.93;0.45;;;;;;;;;;5025750;28;20029;-88
2020/12/11 09:40:59;;;;;;;0.30;0.30;;;;;;;;;;5025319;28;20042;-83
2020/12/11 09:43:43;;;;;;;0.30;0.30;;;;;;;;;;5029991;28;20024;-87
2020/12/11 09:46:25;;;;;;;0.30;0.30;;;7.90;61.50;;;;;;5038778;28;20498;-87
2020/12/11 09:48:55;;;;;;;0.30;0.30;;;;;;;;;;5034138;28;20067;-87
2020/12/11 09:54:08;;;;;;;0.68;0.43;;;;;;;;;;5051052;28;20124;-86
2020/12/11 09:56:34;;;;;;;0.30;0.30;;;;;;;;;;5044699;28;20063;-82
2020/12/11 09:59:37;;;;;;;0.50;0.50;;;;;;;;;;5034065;28;20030;-83
2020/12/11 10:04:19;;;;;;;0.40;0.40;;;;;;;;;;5035268;28;20393;-85
2020/12/11 10:06:45;;;;;;;0.45;0.45;;;;;;;;;;5035178;28;20018;-83
2020/12/11 10:09:11;;;;;;;11.80;1.60;;;;;;;;;;5035450;28;20053;-84
2020/12/11 10:11:37;;;;;;;1.02;0.93;;;;;;;;;;5033739;28;20022;-82
2020/12/11 10:16:51;;;;;;;0.52;0.52;;;8.70;59.70;;;;;;5035421;28;20036;-85
2020/12/11 10:19:17;;;;;;;1.58;1.23;;;;;;;;;;5021411;28;20040;-83
2020/12/11 10:21:47;;;;;;;1.90;0.98;;;9.00;82.80;;;;;;5033799;28;20383;-82
2020/12/11 10:24:14;;;;;;;0.30;0.30;;;;;;;;;;5035022;28;20095;-83
2020/12/11 10:26:40;;;;;;;1.15;0.85;;;;;;;;;;5034706;28;20044;-81
2020/12/11 10:29:06;;;;;;;1.20;1.10;;;9.10;81.40;;;;;;5034828;28;20080;-81
2020/12/11 10:31:31;;;;;;;1.58;0.50;;;9.00;80.90;;;;;;5034523;28;20501;-80
2020/12/11 10:33:58;;;;;;;2.05;0.77;;;9.20;58.30;;;;;;5023641;28;20041;-80
2020/12/11 10:36:31;;;;;;;1.50;1.08;;;9.30;58.20;;;;;;5049954;28;20108;-81
2020/12/11 10:38:57;;;;;;;0.95;0.85;;;;;;;;;;5042589;28;20040;-81
2020/12/11 10:41:24;;;;;;;1.45;0.60;;;;;;;;;;5038793;28;20037;-84
2020/12/11 10:43:50;;;;;;;0.83;0.50;;;;;;;;;;5047810;28;20488;-81
2020/12/11 10:46:16;;;;;;;2.53;1.20;;;;;;;;;;5043817;28;20280;-81
2020/12/11 10:48:43;;;;;;;1.05;1.05;;;;;;;;;;5038349;28;20023;-81
2020/12/11 10:51:11;;;;;;;0.93;0.57;;;9.60;57.60;;;;;;5036338;28;20741;-81
2020/12/11 10:53:37;;;;;;;1.00;0.77;;;;;;;;;;5033932;28;20485;-80
2020/12/11 10:56:06;;;;;;;1.25;0.70;;;9.60;57.00;;;;;;5041939;28;20025;-81
2020/12/11 10:58:32;;;;;;;0.68;0.65;;;;;;;;;;5036578;28;20040;-81
2020/12/11 11:00:58;;;;;;;0.95;0.57;;;;;;;;;;5047963;28;20035;-81
2020/12/11 11:03:28;;;;;;;0.63;0.63;;;;;;;;;;5044520;28;20096;-82
2020/12/11 11:05:55;;;;;;;1.08;0.93;;;9.80;56.60;;;;;;5048016;28;20021;-82
2020/12/11 11:08:22;;;;;;;0.65;0.50;;;;;;;;;;5043819;28;20040;-81
2020/12/11 11:10:49;;;;;;;0.95;0.70;;;;;;;;;;5048820;28;20021;-82
2020/12/11 11:13:27;;;;;;;0.68;0.68;;;10.00;54.70;;;;;;5036143;28;20071;-82
2020/12/11 11:15:55;;;;;;;1.00;0.73;;;;;;;;;;5034116;28;20049;-82
2020/12/11 11:24:08;;;;;;;0.50;0.50;;;;;;;;;;5032400;28;20030;-82
2020/12/11 11:26:39;;;;;;;0.57;0.57;;;;;;;;;;5031622;28;20077;-80
2020/12/11 11:29:06;;;;;;;0.77;0.57;;;10.40;75.90;;;;;;5031870;28;20036;-81
2020/12/11 11:31:32;;;;;;;0.40;0.40;;;;;;;;;;5048304;28;20501;-81
2020/12/11 11:34:01;;;;;;;0.70;0.57;;;;;;;;;;5032638;28;20024;-80
2020/12/11 11:36:28;;;;;;;0.73;0.43;;;10.90;52.20;;;;;;5033219;28;20094;-80
2020/12/11 11:38:54;;;;;;;0.52;0.52;;;;;;;;;;5033291;28;20099;-80
2020/12/11 11:46:42;;;;;;;0.52;0.47;;;11.10;73.60;;;;;;5032615;28;20037;-81
2020/12/11 11:49:11;;;;;;;0.73;0.55;;;;;;;;;;5033000;28;20087;-82
2020/12/11 11:51:48;;;;;;;1.27;0.30;;;;;;;;;;5031901;28;20029;-82
2020/12/11 11:54:14;;;;;;;0.50;0.43;;;;;;;;;;5031888;28;20029;-82
2020/12/11 11:56:40;;;;;;;0.30;0.30;;;;;;;;;;5032906;28;20022;-82
2020/12/11 11:59:06;;;;;;;0.50;0.50;;;;;;;;;;5031775;28;20025;-82
2020/12/11 12:01:32;;;;;;;0.40;0.40;;;;;;;;;;5032899;28;20893;-82
2020/12/11 12:03:58;;;;;;;0.40;0.40;;;;;;;;;;5032942;28;20033;-82
2020/12/11 12:06:24;;;;;;;0.30;0.30;;;;;;;;;;5031328;28;20117;-81
2020/12/11 12:09:09;;;;;;;0.40;0.40;;;;;;;;;;5033040;28;20080;-82
2020/12/11 12:11:35;;;;;;;0.50;0.50;;;;;;;;;;5032680;28;20036;-80
2020/12/11 12:14:01;;;;;;;0.40;0.40;;;;;;;;;;5032713;28;20059;-80
2020/12/11 12:16:27;;;;;;;1.17;0.40;;;;;;;;;;5031296;28;20033;-80
2020/12/11 12:18:56;;;;;;;0.40;0.40;;;;;;;;;;5031036;28;20029;-80
2020/12/11 12:21:34;;;;;;;0.55;0.40;;;;;;;;;;5032257;28;20078;-81
2020/12/11 12:29:19;;;;;;;0.32;0.32;;;11.20;72.80;;;;;;5032709;28;20036;-81
2020/12/11 12:31:52;;;;;;;1.20;0.60;;;11.00;72.80;;;;;;5022298;28;20072;-83
2020/12/11 12:40:00;;;;;;;0.55;0.30;;;11.00;73.60;;;;;;5034164;28;20029;-81
2020/12/11 12:44:49;;;;;;;0.30;0.30;;;;;;;;;;5032661;28;20032;-81
2020/12/11 12:47:15;;;;;;;0.30;0.30;;;;;;;;;;5037429;28;20047;-81
2020/12/11 12:49:41;;;;;;;0.85;0.80;;;;;;;;;;5030299;28;20503;-81
2020/12/11 12:52:10;;;;;;;0.30;0.30;;;;;;;;;;5041031;28;20071;-81
2020/12/11 12:54:36;;;;;;;0.80;0.65;;;;;;;;;;5040213;28;20029;-82
2020/12/11 12:57:06;;;;;;;0.50;0.50;;;;;;;;;;5037669;28;20029;-81
2020/12/11 13:04:40;;;;;;;0.65;0.65;;;;;;;;;;5031996;28;20394;-82
2020/12/11 13:07:06;;;;;;;0.60;0.60;;;;;;;;;;5027847;28;20021;-82
2020/12/11 13:09:32;;;;;;;0.60;0.60;;;;;;;;;;5043582;28;20489;-82
2020/12/11 13:11:59;;;;;;;1.15;0.40;;;;;;;;;;5031698;28;20034;-82
2020/12/11 13:14:25;;;;;;;0.25;0.25;;;;;;;;;;5032077;28;20143;-83
2020/12/11 13:16:51;;;;;;;0.38;0.38;;;;;;;;;;5030713;28;20497;-83
2020/12/11 13:19:18;;;;;;;0.35;0.35;;;;;;;;;;5031882;28;20083;-84
2020/12/11 13:22:21;;;;;;;0.43;0.40;;;;;;;;;;5030689;28;20494;-85
2020/12/11 13:27:26;;;;;;;0.40;0.40;;;11.40;74.70;;;;;;5030978;28;20186;-82
2020/12/11 13:29:52;;;;;;;0.30;0.30;;;;;;;;;;5021398;28;20490;-82
2020/12/11 13:32:19;;;;;;;0.40;0.40;;;;;;;;;;5025652;28;20410;-82
2020/12/11 13:34:45;;;;;;;0.52;0.40;;;;;;;;;;5030537;28;20052;-82
2020/12/11 13:37:11;;;;;;;0.50;0.40;;;;;;;;;;5031534;28;20482;-81
2020/12/11 13:39:38;;;;;;;0.30;0.30;;;;;;;;;;5031488;28;20494;-80
2020/12/11 13:42:04;;;;;;;0.30;0.30;;;;;;;;;;5031384;28;20026;-80
2020/12/11 13:44:30;;;;;;;0.40;0.40;;;11.60;73.40;;;;;;5031467;28;20033;-84
2020/12/11 13:46:56;;;;;;;1.02;0.47;;;;;;;;;;5029269;28;20026;-81
2020/12/11 13:49:22;;;;;;;0.30;0.30;;;;;;;;;;5031967;28;20029;-84
2020/12/11 13:51:48;;;;;;;0.30;0.30;;;11.50;50.70;;;;;;5031749;28;20083;-88
2020/12/11 13:54:15;;;;;;;0.40;0.40;;;11.50;50.90;;;;;;5030189;28;20033;-81
2020/12/11 13:56:41;;;;;;;0.40;0.40;;;;;;;;;;5040927;28;20449;-81
2020/12/11 13:59:10;;;;;;;0.40;0.40;;;;;;;;;;5041163;28;20029;-80
2020/12/11 14:01:36;;;;;;;0.30;0.30;;;;;;;;;;5032667;28;20024;-82
2020/12/11 14:04:02;;;;;;;0.60;0.60;;;;;;;;;;5039621;28;20025;-79
2020/12/11 14:06:32;;;;;;;0.40;0.40;;;11.40;50.30;;;;;;5035406;28;20029;-82
2020/12/11 14:09:02;;;;;;;0.30;0.30;;;;;;;;;;5044622;28;20063;-82
2020/12/11 14:11:29;;;;;;;0.50;0.50;;;;;;;;;;5034447;28;20128;-85
2020/12/11 14:13:55;;;;;;;0.85;0.85;;;;;;;;;;5035307;28;20049;-83
2020/12/11 14:24:14;;;;;;;1.27;0.68;;;;;;;;;;5034971;28;20018;-80
2020/12/11 14:26:45;;;;;;;0.95;0.40;;;;;;;;;;5034999;28;20120;-82
2020/12/11 14:29:11;;;;;;;0.35;0.35;;;11.60;72.20;;;;;;5021014;28;20549;-81
2020/12/11 14:31:37;;;;;;;0.68;0.38;;;;;;;;;;5033553;28;20101;-82
2020/12/11 14:34:03;;;;;;;0.40;0.40;;;;;;;;;;5034461;28;20397;-82
2020/12/11 14:36:29;;;;;;;1.83;0.40;;;;;;;;;;5034710;28;20092;-82
2020/12/11 14:41:22;;;;;;;0.65;0.65;;;;;;;;;;5039452;28;20041;-83
2020/12/11 14:43:48;;;;;;;0.30;0.30;;;;;;;;;;5035980;28;20264;-82
2020/12/11 14:46:24;;;;;;;0.43;0.43;;;11.20;50.60;;;;;;5041083;28;20432;-82
2020/12/11 14:48:52;;;;;;;0.60;0.50;;;11.10;50.70;;;;;;5037103;28;20139;-82
2020/12/11 14:51:18;;;;;;;0.55;0.50;;;11.00;73.30;;;;;;5041858;28;20031;-82
2020/12/11 14:53:44;;;;;;;0.40;0.40;;;;;;;;;;5035278;28;20029;-78
2020/12/11 14:56:11;;;;;;;0.77;0.40;;;;;;;;;;5043753;28;20055;-80